Time;durP1;ratioP1;P1;durP2;ratioP2;P2;SDS_P1;SDS_P2;PMS_P1;PMS_P2;Temp;Humidity;BMP_temperature;BMP_pressure;BME280_temperature;BME280_humidity;BME280_pressure;Samples;Min_cycle;Max_cycle;Signal;HPM_P1;HPM_P2
2022/06/05 00:01:36;;;;;;;19.77;17.98;;;20.60;73.30;;;;;;5048949;28;20052;-81
2022/06/05 00:04:20;;;;;;;20.17;18.48;;;20.60;73.50;;;;;;5050610;28;20029;-81
2022/06/05 00:07:17;;;;;;;19.75;17.88;;;20.60;73.50;;;;;;5046645;28;20037;-81
2022/06/05 00:10:04;;;;;;;19.75;18.02;;;20.60;73.10;;;;;;5048739;28;20370;-81
2022/06/05 00:12:42;;;;;;;20.45;18.73;;;20.60;73.30;;;;;;5029976;28;20034;-81
2022/06/05 00:15:10;;;;;;;20.02;18.23;;;20.60;73.10;;;;;;5048782;28;20049;-80
2022/06/05 00:17:36;;;;;;;20.02;18.27;;;20.70;73.20;;;;;;5043563;28;20033;-81
2022/06/05 00:20:03;;;;;;;20.95;19.02;;;20.60;73.30;;;;;;5043116;28;20030;-81
2022/06/05 00:22:29;;;;;;;20.65;18.63;;;20.50;73.60;;;;;;5047715;28;20029;-81
2022/06/05 00:24:55;;;;;;;20.23;18.42;;;20.50;73.30;;;;;;5033543;28;20041;-81
2022/06/05 00:27:55;;;;;;;21.58;18.63;;;20.60;73.00;;;;;;5049893;28;20044;-81
2022/06/05 00:30:27;;;;;;;21.15;19.00;;;20.60;72.80;;;;;;5051578;28;20498;-81
2022/06/05 00:33:03;;;;;;;19.85;17.88;;;20.50;72.80;;;;;;5048891;28;20403;-80
2022/06/05 00:35:33;;;;;;;20.17;18.33;;;20.50;73.20;;;;;;5048730;28;20029;-81
2022/06/05 00:38:05;;;;;;;20.20;18.60;;;20.30;73.30;;;;;;5033920;28;20044;-81
2022/06/05 00:40:56;;;;;;;20.52;18.73;;;20.30;73.30;;;;;;5048495;28;20460;-81
2022/06/05 00:43:22;;;;;;;19.77;17.83;;;20.30;73.30;;;;;;5033940;28;20033;-81
2022/06/05 00:45:48;;;;;;;19.67;17.83;;;20.30;73.30;;;;;;5049130;28;20025;-81
2022/06/05 00:48:14;;;;;;;18.60;17.05;;;20.40;73.20;;;;;;5049570;28;20043;-81
2022/06/05 00:50:41;;;;;;;20.55;18.48;;;20.40;73.10;;;;;;5042592;28;20033;-81
2022/06/05 00:53:09;;;;;;;19.77;17.92;;;20.40;72.90;;;;;;5026083;28;20025;-81
2022/06/05 00:55:44;;;;;;;20.58;18.55;;;20.50;72.70;;;;;;5047216;28;20029;-81
2022/06/05 00:58:10;;;;;;;19.60;18.10;;;20.50;73.30;;;;;;5031708;28;20040;-81
2022/06/05 01:00:38;;;;;;;21.50;19.23;;;20.50;72.50;;;;;;5049766;28;20037;-81
2022/06/05 01:03:06;;;;;;;19.80;18.00;;;20.50;72.50;;;;;;5042763;28;20573;-81
2022/06/05 01:05:32;;;;;;;20.52;18.33;;;20.40;72.60;;;;;;5042489;28;20049;-81
2022/06/05 01:07:59;;;;;;;21.08;18.88;;;20.40;72.90;;;;;;5047797;28;20055;-81
2022/06/05 01:10:51;;;;;;;20.50;18.50;;;20.20;73.50;;;;;;5049090;28;20060;-81
2022/06/05 01:13:56;;;;;;;20.33;18.42;;;20.10;73.80;;;;;;5016196;28;20037;-81
2022/06/05 01:16:30;;;;;;;20.95;19.10;;;20.10;73.50;;;;;;5031698;28;20068;-81
2022/06/05 01:19:49;;;;;;;19.95;18.35;;;20.10;73.70;;;;;;5048657;28;20030;-81
2022/06/05 01:22:39;;;;;;;20.90;19.08;;;20.00;73.60;;;;;;4989775;28;20399;-80
2022/06/05 01:25:36;;;;;;;21.83;19.77;;;20.10;73.50;;;;;;5006071;28;20239;-81
2022/06/05 01:28:08;;;;;;;20.77;18.90;;;20.00;73.80;;;;;;4989352;28;20053;-81
2022/06/05 01:30:42;;;;;;;20.88;18.98;;;19.90;74.20;;;;;;4991763;28;20041;-81
2022/06/05 01:33:13;;;;;;;21.70;19.40;;;19.80;74.70;;;;;;4969397;28;20069;-81
2022/06/05 01:35:51;;;;;;;21.92;19.63;;;19.90;74.60;;;;;;4974526;28;20189;-81
2022/06/05 01:38:22;;;;;;;22.10;19.88;;;19.90;74.20;;;;;;4989449;28;20054;-81
2022/06/05 01:40:51;;;;;;;;;;;19.90;74.30;;;;;;4973755;28;20468;-80
2022/06/05 01:43:19;;;;;;;21.25;19.13;;;19.90;74.40;;;;;;4988962;28;19925;-81
2022/06/05 01:45:52;;;;;;;22.33;19.88;;;19.90;74.50;;;;;;4988623;28;20088;-81
2022/06/05 01:48:21;;;;;;;21.65;19.50;;;19.80;74.90;;;;;;4991826;28;20493;-81
2022/06/05 01:50:50;;;;;;;25.85;21.40;;;19.70;75.30;;;;;;4968885;28;20050;-81
2022/06/05 01:53:19;;;;;;;22.67;20.55;;;19.60;75.70;;;;;;4984999;28;20033;-81
2022/06/05 01:56:09;;;;;;;23.02;20.80;;;19.50;75.70;;;;;;5000773;28;20026;-80
2022/06/05 01:58:47;;;;;;;22.73;20.27;;;19.50;76.00;;;;;;5005437;28;20494;-81
2022/06/05 02:01:15;;;;;;;26.02;20.52;;;19.50;75.70;;;;;;5013512;28;20040;-81
2022/06/05 02:03:47;;;;;;;23.20;21.17;;;19.50;75.80;;;;;;5045515;28;20463;-81
2022/06/05 02:06:16;;;;;;;23.00;20.58;;;19.50;75.90;;;;;;5025698;28;20052;-81
2022/06/05 02:08:50;;;;;;;24.20;21.73;;;19.50;76.10;;;;;;5044949;28;20430;-80
2022/06/05 02:11:20;;;;;;;24.23;21.17;;;19.40;76.50;;;;;;5013120;28;20045;-81
2022/06/05 02:13:47;;;;;;;23.17;21.00;;;19.40;76.20;;;;;;5020856;28;20471;-80
2022/06/05 02:16:13;;;;;;;23.65;21.60;;;19.50;76.00;;;;;;5046567;28;20050;-81
2022/06/05 02:18:39;;;;;;;23.52;21.52;;;19.60;75.80;;;;;;5044634;28;20045;-81
2022/06/05 02:21:06;;;;;;;23.73;21.35;;;19.50;75.50;;;;;;5045389;28;20426;-81
2022/06/05 02:23:33;;;;;;;23.17;21.08;;;19.60;75.60;;;;;;5046351;28;20036;-81
2022/06/05 02:26:04;;;;;;;24.45;21.88;;;19.50;75.60;;;;;;5048770;28;20037;-81
2022/06/05 02:28:30;;;;;;;25.08;21.55;;;19.60;75.60;;;;;;5049172;28;20117;-81
2022/06/05 02:31:14;;;;;;;23.90;21.70;;;19.60;75.80;;;;;;5048381;28;20510;-81
2022/06/05 02:33:58;;;;;;;23.92;21.73;;;19.50;75.90;;;;;;5046501;28;20037;-81
2022/06/05 02:36:51;;;;;;;24.55;22.10;;;19.40;76.20;;;;;;5046765;28;20041;-80
2022/06/05 02:39:33;;;;;;;25.35;22.92;;;19.30;77.00;;;;;;5047708;28;20029;-81
2022/06/05 02:42:04;;;;;;;25.33;22.88;;;19.20;77.00;;;;;;5041024;28;20499;-81
2022/06/05 02:44:34;;;;;;;26.38;22.88;;;19.10;77.50;;;;;;5041054;28;20033;-81
2022/06/05 02:47:38;;;;;;;24.73;22.38;;;19.00;77.80;;;;;;5045975;28;20479;-81
2022/06/05 02:50:17;;;;;;;23.98;21.77;;;19.00;78.00;;;;;;5046706;28;20025;-80
2022/06/05 02:52:43;;;;;;;24.88;22.52;;;19.00;78.00;;;;;;5040981;28;20017;-81
2022/06/05 02:55:14;;;;;;;27.70;23.00;;;18.80;78.50;;;;;;5045852;28;20037;-80
2022/06/05 02:57:41;;;;;;;24.33;22.00;;;18.70;79.00;;;;;;5044892;28;20025;-80
2022/06/05 03:00:10;;;;;;;26.52;22.67;;;18.70;79.20;;;;;;5023762;28;20036;-80
2022/06/05 03:05:20;;;;;;;27.35;22.70;;;18.70;79.00;;;;;;5048677;28;20032;-81
2022/06/05 03:07:46;;;;;;;25.17;22.48;;;18.60;79.30;;;;;;5040460;28;20037;-81
2022/06/05 03:10:12;;;;;;;25.33;22.88;;;18.60;79.40;;;;;;5045569;28;20025;-81
2022/06/05 03:12:38;;;;;;;25.65;23.00;;;18.60;79.70;;;;;;5048865;28;20040;-81
2022/06/05 03:15:06;;;;;;;24.75;22.30;;;18.60;79.40;;;;;;5040519;28;20041;-80
2022/06/05 03:17:32;;;;;;;26.90;22.80;;;18.50;79.70;;;;;;5031130;28;20248;-80
2022/06/05 03:19:58;;;;;;;24.77;22.35;;;18.50;80.10;;;;;;5047245;28;20021;-81
2022/06/05 03:22:24;;;;;;;27.25;22.42;;;18.50;80.00;;;;;;5045543;28;20371;-81
2022/06/05 03:24:51;;;;;;;24.75;21.83;;;18.50;80.20;;;;;;5047120;28;20037;-81
2022/06/05 03:27:18;;;;;;;25.67;23.00;;;18.50;80.20;;;;;;5047465;28;20041;-81
2022/06/05 03:29:45;;;;;;;26.30;23.73;;;18.40;80.10;;;;;;5027706;28;20041;-81
2022/06/05 03:32:11;;;;;;;26.23;23.65;;;18.40;80.20;;;;;;5037577;28;20406;-81
2022/06/05 03:34:37;;;;;;;28.77;24.23;;;18.50;80.40;;;;;;5046215;28;20026;-81
2022/06/05 03:37:04;;;;;;;28.70;25.52;;;18.30;80.60;;;;;;5046118;28;20047;-81
2022/06/05 03:39:31;;;;;;;28.45;25.48;;;18.40;80.70;;;;;;5047175;28;20039;-80
2022/06/05 03:41:57;;;;;;;28.75;25.73;;;18.30;80.80;;;;;;5047192;28;20037;-81
2022/06/05 03:44:23;;;;;;;29.55;25.63;;;18.20;81.00;;;;;;5034415;28;20043;-80
2022/06/05 03:46:51;;;;;;;28.73;25.73;;;18.30;80.80;;;;;;5049024;28;20037;-81
2022/06/05 03:49:17;;;;;;;28.42;25.40;;;18.40;80.70;;;;;;5047494;28;20044;-81
2022/06/05 03:51:45;;;;;;;28.80;25.60;;;18.30;80.90;;;;;;5052780;28;20025;-81
2022/06/05 03:54:11;;;;;;;30.38;25.63;;;18.20;81.40;;;;;;5049998;28;20029;-81
2022/06/05 03:56:38;;;;;;;28.92;25.63;;;18.20;81.50;;;;;;5049256;28;20045;-81
2022/06/05 03:59:04;;;;;;;31.90;27.17;;;18.30;81.00;;;;;;5043650;28;20025;-81
2022/06/05 04:01:30;;;;;;;29.10;25.00;;;18.30;81.00;;;;;;5047891;28;20388;-81
2022/06/05 04:03:56;;;;;;;32.25;25.35;;;18.30;81.50;;;;;;5050345;28;20037;-81
2022/06/05 04:06:27;;;;;;;28.42;25.38;;;18.20;81.40;;;;;;5032453;28;20064;-80
2022/06/05 04:08:55;;;;;;;30.23;25.95;;;18.30;81.10;;;;;;5049948;28;20136;-80
2022/06/05 04:11:21;;;;;;;28.83;25.05;;;18.40;81.20;;;;;;5049070;28;20036;-80
2022/06/05 04:13:48;;;;;;;28.63;25.48;;;18.40;80.60;;;;;;5049218;28;20024;-80
2022/06/05 04:16:19;;;;;;;27.63;24.90;;;18.40;80.70;;;;;;5048884;28;20045;-81
2022/06/05 04:18:46;;;;;;;29.13;26.00;;;18.50;80.70;;;;;;5016916;28;20041;-81
2022/06/05 04:21:14;;;;;;;29.17;26.33;;;18.40;81.00;;;;;;5048281;28;20029;-81
2022/06/05 04:23:40;;;;;;;30.15;26.02;;;18.40;81.00;;;;;;5050087;28;20028;-81
2022/06/05 04:26:09;;;;;;;30.63;27.27;;;18.50;80.50;;;;;;5048386;28;20060;-81
2022/06/05 04:28:36;;;;;;;30.55;27.08;;;18.40;80.70;;;;;;5047519;28;20053;-81
2022/06/05 04:31:02;;;;;;;30.40;27.08;;;18.40;80.80;;;;;;5050042;28;20036;-81
2022/06/05 04:33:29;;;;;;;30.30;27.02;;;18.40;80.60;;;;;;5050893;28;20048;-81
2022/06/05 04:35:55;;;;;;;28.75;25.33;;;18.30;81.00;;;;;;5033534;28;20499;-81
2022/06/05 04:38:21;;;;;;;29.80;26.50;;;18.20;81.60;;;;;;5048666;28;20040;-80
2022/06/05 04:40:47;;;;;;;30.13;26.08;;;18.20;81.60;;;;;;5048550;28;20032;-81
2022/06/05 04:43:13;;;;;;;29.40;26.08;;;18.20;81.50;;;;;;5048947;28;20025;-81
2022/06/05 04:45:42;;;;;;;30.90;26.05;;;18.20;81.70;;;;;;5045385;28;20047;-81
2022/06/05 04:48:10;;;;;;;28.73;25.67;;;18.20;81.70;;;;;;5048081;28;20056;-81
2022/06/05 04:50:37;;;;;;;29.23;26.05;;;18.20;81.50;;;;;;5048245;28;20033;-81
2022/06/05 04:53:03;;;;;;;26.90;24.33;;;18.30;81.10;;;;;;5047508;28;20052;-81
2022/06/05 04:55:30;;;;;;;26.75;23.90;;;18.30;81.00;;;;;;5047175;28;20034;-81
2022/06/05 04:57:56;;;;;;;25.70;23.00;;;18.40;80.70;;;;;;5050485;28;20033;-81
2022/06/05 05:00:23;;;;;;;25.40;22.90;;;18.40;80.40;;;;;;5048835;28;20047;-81
2022/06/05 05:02:49;;;;;;;25.88;23.15;;;18.20;80.50;;;;;;5049261;28;20045;-81
2022/06/05 05:05:16;;;;;;;25.95;22.98;;;18.20;80.60;;;;;;5047817;28;20029;-80
2022/06/05 05:07:42;;;;;;;25.17;22.60;;;18.20;80.70;;;;;;5043176;28;20044;-80
2022/06/05 05:10:09;;;;;;;24.55;22.05;;;18.10;80.70;;;;;;5048369;28;20037;-80
2022/06/05 05:12:35;;;;;;;25.30;21.77;;;18.10;80.70;;;;;;5033263;28;20045;-80
2022/06/05 05:15:01;;;;;;;24.85;22.35;;;18.00;80.80;;;;;;5048104;28;20055;-80
2022/06/05 05:17:27;;;;;;;23.40;21.27;;;18.00;80.90;;;;;;5047213;28;20035;-80
2022/06/05 05:19:55;;;;;;;24.23;21.77;;;18.00;80.50;;;;;;5047791;28;20368;-80
2022/06/05 05:22:21;;;;;;;23.85;21.23;;;17.90;80.40;;;;;;5047715;28;20033;-80
2022/06/05 05:24:48;;;;;;;23.92;21.40;;;18.00;80.50;;;;;;5049586;28;20033;-80
2022/06/05 05:27:14;;;;;;;23.38;21.08;;;18.00;80.30;;;;;;5048669;28;20029;-80
2022/06/05 05:29:40;;;;;;;22.58;20.38;;;18.00;80.00;;;;;;5047523;28;20037;-80
2022/06/05 05:32:08;;;;;;;23.33;20.98;;;18.00;79.80;;;;;;5041044;28;20041;-80
2022/06/05 05:34:34;;;;;;;23.38;21.08;;;18.00;79.70;;;;;;5046395;28;20048;-81
2022/06/05 05:37:01;;;;;;;22.70;20.52;;;18.00;80.50;;;;;;5049574;28;20029;-80
2022/06/05 05:42:12;;;;;;;22.48;20.17;;;17.80;79.80;;;;;;5055133;28;20048;-80
2022/06/05 05:44:40;;;;;;;22.88;20.58;;;17.90;79.60;;;;;;5041935;28;20032;-81
2022/06/05 05:47:08;;;;;;;36.03;21.10;;;17.80;79.60;;;;;;5041026;28;20798;-80
2022/06/05 05:49:35;;;;;;;23.58;21.10;;;17.80;79.70;;;;;;5029984;28;20427;-80
2022/06/05 05:52:01;;;;;;;22.60;20.40;;;17.70;79.90;;;;;;5047977;28;20396;-81
2022/06/05 05:54:27;;;;;;;25.10;21.80;;;17.70;80.30;;;;;;5046899;28;20041;-81
2022/06/05 05:56:54;;;;;;;24.77;22.25;;;17.70;80.30;;;;;;5047261;28;20079;-81
2022/06/05 05:59:20;;;;;;;24.85;21.85;;;17.70;80.10;;;;;;5047038;28;20048;-81
2022/06/05 06:01:46;;;;;;;23.45;21.05;;;17.80;80.10;;;;;;5040983;28;20036;-80
2022/06/05 06:04:12;;;;;;;24.45;21.60;;;17.80;80.30;;;;;;5029817;28;20036;-81
2022/06/05 06:06:40;;;;;;;24.55;22.10;;;17.80;80.00;;;;;;5049206;28;20044;-81
2022/06/05 06:09:07;;;;;;;25.58;22.45;;;17.80;80.00;;;;;;5041160;28;20056;-81
2022/06/05 06:11:33;;;;;;;23.60;21.10;;;17.80;80.00;;;;;;5046965;28;20447;-81
2022/06/05 06:13:59;;;;;;;26.67;21.85;;;17.80;80.20;;;;;;5047254;28;20410;-80
2022/06/05 06:16:28;;;;;;;23.35;21.05;;;17.80;80.20;;;;;;5046229;28;20476;-80
2022/06/05 06:18:55;;;;;;;23.60;21.30;;;18.00;80.10;;;;;;5048122;28;20033;-80
2022/06/05 06:21:21;;;;;;;23.85;21.55;;;18.00;79.70;;;;;;5048216;28;20033;-80
2022/06/05 06:23:47;;;;;;;26.05;21.08;;;18.00;79.70;;;;;;5011966;28;20470;-80
2022/06/05 06:26:13;;;;;;;22.08;20.08;;;17.90;79.80;;;;;;5039259;28;20041;-80
2022/06/05 06:28:39;;;;;;;23.55;21.35;;;17.90;79.70;;;;;;5047993;28;20043;-81
2022/06/05 06:31:07;;;;;;;23.23;21.00;;;17.90;80.30;;;;;;5045232;28;20037;-80
2022/06/05 06:33:33;;;;;;;23.45;21.02;;;18.00;80.10;;;;;;5032737;28;20037;-80
2022/06/05 06:36:01;;;;;;;22.88;20.58;;;18.10;79.60;;;;;;5041147;28;20047;-80
2022/06/05 06:38:27;;;;;;;22.83;20.60;;;18.10;79.70;;;;;;5046582;28;20036;-80
2022/06/05 06:41:07;;;;;;;22.63;20.38;;;18.20;79.30;;;;;;5041091;28;20468;-80
2022/06/05 06:43:34;;;;;;;23.15;20.67;;;18.30;79.00;;;;;;5047018;28;20029;-80
2022/06/05 06:46:00;;;;;;;21.90;19.83;;;18.30;78.90;;;;;;5046667;28;20033;-81
2022/06/05 06:48:27;;;;;;;23.33;21.00;;;18.40;79.10;;;;;;5047073;28;20514;-81
2022/06/05 06:50:57;;;;;;;22.55;20.35;;;18.40;78.90;;;;;;5041010;28;20040;-81
2022/06/05 06:53:23;;;;;;;22.08;19.98;;;18.50;78.50;;;;;;5046780;28;20036;-80
2022/06/05 06:55:49;;;;;;;22.00;20.00;;;18.50;78.20;;;;;;5046481;28;20386;-80
2022/06/05 06:58:16;;;;;;;20.98;18.83;;;18.50;78.40;;;;;;5046575;28;20476;-80
2022/06/05 07:00:42;;;;;;;22.48;20.20;;;18.40;78.70;;;;;;5048184;28;20044;-81
2022/06/05 07:03:08;;;;;;;22.05;20.13;;;18.40;79.20;;;;;;5046239;28;20506;-81
2022/06/05 07:05:34;;;;;;;23.45;21.15;;;18.50;79.20;;;;;;5047908;28;20056;-80
2022/06/05 07:08:01;;;;;;;22.35;20.42;;;18.50;79.20;;;;;;5040909;28;20510;-81
2022/06/05 07:10:27;;;;;;;23.48;21.25;;;18.40;79.60;;;;;;5029746;28;20053;-81
2022/06/05 07:12:53;;;;;;;22.85;20.85;;;18.40;79.40;;;;;;5049067;28;20091;-80
2022/06/05 07:15:19;;;;;;;23.23;20.85;;;18.40;79.50;;;;;;5047292;28;20053;-80
2022/06/05 07:17:46;;;;;;;23.52;21.52;;;18.40;79.80;;;;;;5050223;28;20041;-81
2022/06/05 07:20:12;;;;;;;23.27;21.33;;;18.40;79.70;;;;;;5044519;28;20025;-81
2022/06/05 07:22:39;;;;;;;23.73;21.67;;;18.40;79.80;;;;;;5049072;28;20431;-80
2022/06/05 07:25:05;;;;;;;23.92;21.73;;;18.40;80.00;;;;;;5051672;28;20032;-80
2022/06/05 07:27:32;;;;;;;23.38;21.27;;;18.40;80.00;;;;;;5033999;28;20044;-80
2022/06/05 07:29:58;;;;;;;22.95;20.95;;;18.40;79.80;;;;;;5027620;28;20048;-80
2022/06/05 07:32:24;;;;;;;22.83;20.83;;;18.40;80.00;;;;;;5014363;28;20025;-80
2022/06/05 07:34:50;;;;;;;23.58;21.67;;;18.40;80.50;;;;;;5039194;28;20033;-81
2022/06/05 07:37:16;;;;;;;22.13;20.42;;;18.30;80.20;;;;;;5049857;28;20485;-81
2022/06/05 07:39:42;;;;;;;21.60;19.90;;;18.40;79.90;;;;;;5052283;28;20040;-80
2022/06/05 07:42:09;;;;;;;22.63;20.73;;;18.50;79.60;;;;;;5050813;28;20032;-81
2022/06/05 07:44:38;;;;;;;22.10;20.20;;;18.50;79.30;;;;;;5027515;28;20379;-80
2022/06/05 07:47:07;;;;;;;21.10;19.40;;;18.60;79.30;;;;;;5043526;28;20025;-80
2022/06/05 07:49:34;;;;;;;20.67;18.95;;;18.60;78.80;;;;;;5048516;28;20045;-81
2022/06/05 07:54:48;;;;;;;20.27;18.67;;;18.70;77.30;;;;;;5053482;28;20413;-80
2022/06/05 07:57:15;;;;;;;20.35;18.73;;;18.70;77.70;;;;;;5049146;28;20037;-80
2022/06/05 07:59:43;;;;;;;20.05;18.45;;;18.60;77.70;;;;;;5042983;28;20041;-80
2022/06/05 08:02:12;;;;;;;20.13;18.45;;;18.70;77.50;;;;;;5043147;28;20403;-81
2022/06/05 08:04:38;;;;;;;18.95;17.33;;;18.70;77.20;;;;;;5049477;28;20021;-80
2022/06/05 08:07:06;;;;;;;18.38;16.95;;;18.70;76.50;;;;;;5049514;28;20041;-81
2022/06/05 08:09:32;;;;;;;17.77;16.13;;;18.70;76.80;;;;;;5050323;28;20412;-80
2022/06/05 08:11:58;;;;;;;16.05;14.85;;;18.80;76.30;;;;;;5048858;28;20037;-81
2022/06/05 08:14:24;;;;;;;17.63;16.05;;;18.90;75.80;;;;;;5043736;28;20037;-81
2022/06/05 08:16:51;;;;;;;16.80;15.18;;;18.90;75.40;;;;;;5017145;28;20398;-81
2022/06/05 08:19:19;;;;;;;17.85;16.35;;;18.90;74.80;;;;;;5047932;28;20029;-81
2022/06/05 08:21:46;;;;;;;17.17;15.77;;;19.00;75.20;;;;;;5052462;28;20029;-80
2022/06/05 08:24:12;;;;;;;17.10;15.73;;;18.90;74.90;;;;;;5031961;28;20049;-80
2022/06/05 08:26:38;;;;;;;17.35;16.10;;;18.90;75.00;;;;;;5048604;28;20025;-81
2022/06/05 08:29:04;;;;;;;16.35;14.95;;;19.00;74.90;;;;;;5033357;28;20045;-80
2022/06/05 08:31:31;;;;;;;15.98;14.77;;;19.00;74.50;;;;;;5048638;28;20060;-80
2022/06/05 08:33:58;;;;;;;15.82;14.52;;;19.00;74.10;;;;;;5051211;28;20040;-80
2022/06/05 08:36:24;;;;;;;15.73;14.35;;;19.10;74.10;;;;;;5031337;28;20037;-81
2022/06/05 08:41:45;;;;;;;14.77;13.57;;;19.30;73.60;;;;;;5044713;28;20044;-80
2022/06/05 08:44:21;;;;;;;14.77;13.30;;;19.40;72.80;;;;;;5048907;28;20025;-81
2022/06/05 08:46:53;;;;;;;14.68;13.43;;;19.60;71.10;;;;;;5042590;28;20025;-80
2022/06/05 08:49:36;;;;;;;16.50;15.30;;;19.70;70.50;;;;;;5047540;28;20033;-81
2022/06/05 08:52:43;;;;;;;15.18;13.98;;;19.80;70.90;;;;;;5033972;28;20467;-81
2022/06/05 08:55:15;;;;;;;14.98;13.77;;;19.90;69.90;;;;;;5047475;28;20029;-81
2022/06/05 08:57:45;;;;;;;15.18;13.70;;;20.10;70.80;;;;;;5044050;28;20040;-81
2022/06/05 09:00:31;;;;;;;14.73;13.52;;;20.20;69.80;;;;;;5047501;28;20373;-81
2022/06/05 09:03:03;;;;;;;14.05;13.05;;;20.30;68.80;;;;;;5048166;28;20033;-81
2022/06/05 09:05:38;;;;;;;14.63;13.43;;;20.30;67.60;;;;;;5042716;28;20024;-81
2022/06/05 09:08:09;;;;;;;14.90;13.73;;;20.30;67.10;;;;;;5048148;28;20367;-81
2022/06/05 09:10:38;;;;;;;15.35;14.35;;;20.30;67.50;;;;;;5030906;28;20033;-82
2022/06/05 09:13:06;;;;;;;14.82;13.82;;;20.30;66.60;;;;;;5032450;28;20033;-81
2022/06/05 09:15:43;;;;;;;16.13;15.18;;;20.50;67.20;;;;;;5048609;28;20044;-81
2022/06/05 09:18:20;;;;;;;15.43;14.20;;;20.60;66.90;;;;;;5026999;28;20478;-82
2022/06/05 09:20:58;;;;;;;15.55;14.55;;;21.00;66.60;;;;;;5025870;28;20039;-82
2022/06/05 09:23:32;;;;;;;17.10;15.82;;;21.10;65.30;;;;;;5047651;28;20028;-81
2022/06/05 09:26:16;;;;;;;17.88;16.80;;;21.10;64.90;;;;;;5028104;28;20037;-81
2022/06/05 09:29:09;;;;;;;18.17;16.92;;;21.00;65.40;;;;;;5042964;28;20041;-81
2022/06/05 09:32:01;;;;;;;18.50;17.10;;;20.90;63.60;;;;;;5034540;28;20029;-81
2022/06/05 09:34:34;;;;;;;17.65;16.42;;;20.90;64.20;;;;;;5017635;28;20033;-82
2022/06/05 09:37:19;;;;;;;17.60;16.40;;;21.00;65.10;;;;;;5031831;28;20051;-82
2022/06/05 09:40:12;;;;;;;18.00;16.88;;;21.00;64.00;;;;;;5047041;28;20036;-82
2022/06/05 09:42:44;;;;;;;19.50;18.33;;;21.00;63.90;;;;;;5050975;28;20099;-81
2022/06/05 09:45:19;;;;;;;18.73;17.50;;;21.00;63.20;;;;;;5048898;28;20033;-81
2022/06/05 09:48:04;;;;;;;18.73;17.52;;;20.90;64.40;;;;;;5048636;28;20484;-82
2022/06/05 09:50:30;;;;;;;19.02;17.83;;;20.90;64.90;;;;;;5047263;28;20033;-82
2022/06/05 09:52:56;;;;;;;18.52;17.48;;;21.00;64.40;;;;;;5047242;28;20021;-82
2022/06/05 09:56:00;;;;;;;19.42;18.27;;;21.20;65.00;;;;;;5046746;28;20034;-82
2022/06/05 09:58:27;;;;;;;18.35;17.15;;;21.60;63.70;;;;;;5033428;28;20028;-82
2022/06/05 10:00:58;;;;;;;20.50;19.10;;;21.90;62.20;;;;;;5049067;28;20041;-83
2022/06/05 10:03:44;;;;;;;22.65;21.45;;;22.00;61.60;;;;;;5033424;28;20056;-83
2022/06/05 10:06:39;;;;;;;23.70;22.33;;;22.10;61.60;;;;;;5059353;28;20052;-83
2022/06/05 10:09:20;;;;;;;23.95;22.58;;;22.20;61.60;;;;;;5046338;28;20044;-82
2022/06/05 10:11:49;;;;;;;;;;;22.20;60.70;;;;;;5027523;28;20472;-82
2022/06/05 10:14:28;;;;;;;22.13;20.73;;;22.10;60.50;;;;;;5048221;28;20298;-83
2022/06/05 10:16:57;;;;;;;21.70;20.15;;;22.00;60.40;;;;;;5025906;28;20030;-82
2022/06/05 10:19:51;;;;;;;20.73;19.38;;;22.00;60.40;;;;;;5046428;28;20038;-82
2022/06/05 10:22:32;;;;;;;20.17;18.98;;;22.00;61.30;;;;;;5030332;28;20472;-82
2022/06/05 10:25:23;;;;;;;21.88;20.38;;;22.20;60.60;;;;;;5032238;28;20238;-83
2022/06/05 10:27:49;;;;;;;;;;;22.50;59.50;;;;;;5047154;28;20035;-83
2022/06/05 10:30:16;;;;;;;25.90;24.02;;;22.90;58.60;;;;;;5046322;28;19912;-83
2022/06/05 10:32:57;;;;;;;25.20;23.80;;;23.30;57.10;;;;;;5041231;28;20025;-83
2022/06/05 10:35:29;;;;;;;;;;;23.60;56.40;;;;;;5041970;28;20036;-83
2022/06/05 10:38:36;;;;;;;23.70;22.35;;;23.40;54.80;;;;;;5041560;28;19920;-83
2022/06/05 10:41:33;;;;;;;27.88;26.30;;;23.50;55.90;;;;;;4984641;28;20485;-83
2022/06/05 10:44:30;;;;;;;22.27;20.88;;;23.50;55.00;;;;;;4973334;28;20373;-83
2022/06/05 10:47:07;;;;;;;22.67;21.35;;;23.40;53.50;;;;;;4973987;28;20027;-82
2022/06/05 10:49:59;;;;;;;20.92;19.40;;;23.50;53.70;;;;;;4971921;28;20523;-83
2022/06/05 10:52:32;;;;;;;21.70;20.50;;;23.80;53.00;;;;;;4969566;28;20393;-83
2022/06/05 10:55:25;;;;;;;21.08;19.77;;;24.00;51.70;;;;;;4975217;28;20030;-83
2022/06/05 10:58:13;;;;;;;24.42;23.13;;;24.10;52.80;;;;;;4972605;28;20045;-84
2022/06/05 11:00:58;;;;;;;22.92;21.63;;;24.40;52.10;;;;;;4986559;28;20035;-83
2022/06/05 11:03:52;;;;;;;23.38;22.17;;;24.50;50.30;;;;;;4990668;28;20034;-83
2022/06/05 11:07:00;;;;;;;25.92;24.42;;;24.60;50.80;;;;;;4960678;28;20626;-84
2022/06/05 11:09:29;;;;;;;22.15;20.85;;;24.70;49.30;;;;;;4956272;28;20066;-83
2022/06/05 11:15:25;;;;;;;24.77;23.45;;;24.80;48.10;;;;;;4957381;28;20062;-84
2022/06/05 11:17:55;;;;;;;22.45;21.23;;;24.70;48.10;;;;;;4976678;28;20041;-83
2022/06/05 11:20:22;;;;;;;21.38;19.98;;;24.90;47.50;;;;;;5029865;28;20057;-83
2022/06/05 11:23:03;;;;;;;21.48;20.10;;;25.10;48.40;;;;;;5014591;28;20645;-83
2022/06/05 11:25:31;;;;;;;;;;;25.30;48.70;;;;;;5016081;28;20029;-83
2022/06/05 11:28:11;;;;;;;21.42;20.23;;;25.40;47.80;;;;;;5030800;28;19905;-83
2022/06/05 11:30:37;;;;;;;22.60;21.38;;;25.50;48.10;;;;;;5015538;28;20049;-83
2022/06/05 11:33:21;;;;;;;21.30;20.17;;;25.70;47.40;;;;;;5030432;28;20041;-83
2022/06/05 11:36:12;;;;;;;20.17;19.13;;;25.80;47.40;;;;;;4994675;28;20049;-83
2022/06/05 11:38:47;;;;;;;20.33;19.25;;;25.60;47.70;;;;;;5026187;28;20033;-82
2022/06/05 11:41:19;;;;;;;18.95;17.95;;;25.40;47.30;;;;;;5030140;28;20040;-83
2022/06/05 11:43:45;;;;;;;19.80;18.60;;;25.20;47.40;;;;;;5014048;28;20034;-83
2022/06/05 11:46:20;;;;;;;19.40;18.20;;;25.10;48.80;;;;;;5002396;28;20487;-83
2022/06/05 11:49:11;;;;;;;20.20;19.00;;;25.10;48.20;;;;;;5047759;28;20043;-83
2022/06/05 11:51:46;;;;;;;;;;;25.10;48.50;;;;;;5052225;28;20037;-83
2022/06/05 11:54:30;;;;;;;19.67;18.50;;;25.40;48.10;;;;;;5062173;28;19916;-83
2022/06/05 11:57:21;;;;;;;20.20;19.10;;;25.50;46.60;;;;;;5046978;28;20021;-84
2022/06/05 11:59:55;;;;;;;20.45;19.25;;;25.60;46.80;;;;;;5043433;28;20037;-83
2022/06/05 12:02:49;;;;;;;20.77;19.58;;;25.80;46.40;;;;;;5042557;28;20036;-84
2022/06/05 12:05:27;;;;;;;20.38;19.27;;;25.70;46.80;;;;;;5043080;28;20037;-83
2022/06/05 12:08:02;;;;;;;21.58;20.42;;;25.80;46.00;;;;;;5049418;28;20032;-84
2022/06/05 12:10:28;;;;;;;19.85;18.67;;;25.70;46.10;;;;;;5016676;28;20053;-83
2022/06/05 12:13:22;;;;;;;19.42;17.90;;;25.40;47.10;;;;;;5034191;28;20367;-83
2022/06/05 12:16:04;;;;;;;22.40;21.15;;;25.40;47.10;;;;;;5048528;28;20056;-83
2022/06/05 12:18:35;;;;;;;19.98;18.77;;;25.40;46.60;;;;;;5051273;28;20033;-83
2022/06/05 12:21:09;;;;;;;18.30;17.10;;;25.40;46.50;;;;;;5028272;28;20025;-83
2022/06/05 12:23:40;;;;;;;27.67;26.13;;;25.30;46.10;;;;;;5014915;28;20037;-82
2022/06/05 12:26:33;;;;;;;19.92;18.83;;;25.20;46.30;;;;;;5026152;28;20063;-83
2022/06/05 12:29:11;;;;;;;17.10;16.23;;;25.00;46.70;;;;;;5041965;28;20061;-83
2022/06/05 12:31:44;;;;;;;19.10;18.10;;;25.00;46.70;;;;;;5034431;28;20033;-83
2022/06/05 12:34:10;;;;;;;24.40;23.00;;;25.00;47.20;;;;;;5032425;28;20048;-83
2022/06/05 12:36:41;;;;;;;18.40;17.27;;;25.00;47.00;;;;;;5052175;28;20471;-83
2022/06/05 12:39:23;;;;;;;18.13;17.10;;;25.00;46.80;;;;;;5043089;28;20386;-83
2022/06/05 12:42:26;;;;;;;18.65;17.65;;;24.80;46.90;;;;;;5013948;28;20048;-83
2022/06/05 12:44:57;;;;;;;18.50;16.88;;;24.70;47.90;;;;;;5046525;28;20029;-83
2022/06/05 12:47:32;;;;;;;17.42;16.42;;;24.80;48.10;;;;;;5047495;28;20037;-83
2022/06/05 12:50:05;;;;;;;18.77;17.73;;;24.90;47.70;;;;;;5048249;28;20040;-83
2022/06/05 12:52:38;;;;;;;19.02;17.95;;;24.90;47.60;;;;;;5031035;28;20046;-83
2022/06/05 12:55:18;;;;;;;16.90;16.00;;;24.90;47.70;;;;;;5048907;28;20032;-82
2022/06/05 12:57:53;;;;;;;19.83;18.77;;;24.80;46.90;;;;;;5027346;28;20037;-83
2022/06/05 13:00:40;;;;;;;19.33;18.23;;;24.70;46.80;;;;;;5050989;28;20424;-83
2022/06/05 13:03:21;;;;;;;19.73;18.63;;;24.70;47.40;;;;;;5048120;28;20394;-82
2022/06/05 13:05:58;;;;;;;16.50;15.50;;;24.60;47.20;;;;;;5027695;28;20032;-83
2022/06/05 13:08:49;;;;;;;17.75;16.80;;;24.50;47.50;;;;;;5042556;28;20028;-82
2022/06/05 13:11:34;;;;;;;;;;;24.40;46.80;;;;;;5032757;28;20048;-82